This is the latest recevied weather packets stored in our database for station/object OK2ILA-1. If no packets are shown the sender has not sent any weather packets the latest 1 day(s).
| Time | Temp. | Humidity | Pressure | Rain* | Wind** | Luminosity | Snow |
|---|---|---|---|---|---|---|---|
| 1836274712 | 16.67° C | 100% | 0 hPa | 0 mm | 0.45 m/s, 260° | - | - |
| 1836274562 | 16.11° C | 100% | 0 hPa | 0 mm | 0.45 m/s, 241° | - | - |
| 1836274111 | 16.67° C | 100% | 0 hPa | 0 mm | 0.89 m/s, 177° | - | - |
| 1778015007 | 18.33° C | 100% | 1007.8 hPa | 0 mm | 0.45 m/s, 191° | - | - |
| 1778013566 | 18.33° C | 100% | 1007.8 hPa | 0 mm | 2.24 m/s, 175° | - | - |
| 1778012845 | 18.89° C | 100% | 1007.8 hPa | 0 mm | 3.58 m/s, 151° | - | - |
| 1778012124 | 18.33° C | 100% | 1007.8 hPa | 0 mm | 3.13 m/s, 180° | - | - |
| 1778011404 | 18.89° C | 100% | 1007.9 hPa | 0 mm | 0 m/s | - | - |
| 1778010683 | 19.44° C | 100% | 1007.9 hPa | 0 mm | 1.79 m/s, 199° | - | - |
| 1778009962 | 19.44° C | 100% | 1007.9 hPa | 0 mm | 1.79 m/s, 180° | - | - |
| 1778009242 | 20° C | 100% | 1007.8 hPa | 0 mm | 0.89 m/s, 187° | - | - |
| 1778008521 | 20° C | 100% | 1007.8 hPa | 0 mm | 3.13 m/s, 161° | - | - |
| 1778007800 | 20.56° C | 100% | 1007.8 hPa | 0 mm | 2.68 m/s, 150° | - | - |
| 1778007080 | 20.56° C | 100% | 1007.8 hPa | 0 mm | 2.68 m/s, 191° | - | - |
| 1778006359 | 20.56° C | 100% | 1007.7 hPa | 0 mm | 3.13 m/s, 165° | - | - |
| 1778005638 | 20.56° C | 100% | 1007.6 hPa | 0 mm | 4.47 m/s, 163° | - | - |
| 1778004917 | 21.11° C | 100% | 1007.7 hPa | 0 mm | 1.34 m/s, 187° | - | - |
| 1778004197 | 21.67° C | 100% | 1007.5 hPa | 0 mm | 2.24 m/s, 160° | - | - |
| 1778003476 | 22.22° C | 100% | 1007.4 hPa | 0 mm | 1.34 m/s, 158° | - | - |
| 1778002755 | 22.22° C | 100% | 1007.4 hPa | 0 mm | 1.79 m/s, 156° | - | - |
| 1778002035 | 22.78° C | 100% | 1007.3 hPa | 0 mm | 3.58 m/s, 163° | - | - |
| 1778001314 | 23.33° C | 100% | 1007.3 hPa | 0 mm | 4.02 m/s, 182° | - | - |
| 1778000593 | 23.33° C | 100% | 1007.3 hPa | 0 mm | 2.24 m/s, 163° | - | - |
| 1777999873 | 23.89° C | 100% | 1007.3 hPa | 0 mm | 4.47 m/s, 149° | - | - |
| 1777999152 | 24.44° C | 100% | 1007.4 hPa | 0 mm | 7.15 m/s, 156° | - | - |
* Rain latest hour (hover to see other rain measurements)
** Current wind speed in m/s (hover to see current wind gust speed)